Adelanto, California
Current Conditions -  °F | °C
As of 2:35 PM on Wednesday 22 Oct 2014 (Local Time) from KVCV Reporting Station
Clear Clear  
Wind Chill: 79°   Ceiling: Unl
Heat Index: 79°   Visibility: 10mi
Dew Point: 28°   Wind: 5mph
Humidity: 16%   Direction: 360°N
Pressure: 30.03"   Gusts: NA
Location:  34.58°N, 117.41°W
Report Text: KVCV 222135Z AUTO 36004KT 10SM CLR 26/M02 A3003 RMK AO2
Loading
Personal Weather Stations






























Interactive Weather Map
Tropical Storm Tracking
New forecast layout! Learn more

10-Day Weather Forecast

Advertisements
Track Severe Weather on mobile